Terminal Aerodrome Forecast
Issued by NWS

Home | Current Version | Previous Version | Graphics & Text | Print | Product List | Glossary On
Versions: 1 2 3 4 5 6 7 8 9 10 11 12 13 14 15
000
FTUS43 KICT 280520
TAFHUT
TAF
KHUT 280520Z 2806/2906 15006KT P6SM FEW080
     FM280900 21008KT P6SM SCT080
     FM281500 26012G20KT P6SM SCT060
     FM282100 01011G21KT P6SM VCTS BKN060CB
     FM290100 36011KT P6SM SCT100 SCT200=

USA.gov is the U.S. government's official web portal to all federal, state and local government web resources and services.